createdAt,value
2022-11-18T00:01:37.073Z,60.59
2022-11-18T00:04:04.342Z,60.86
2022-11-18T00:06:31.392Z,60.64
2022-11-18T00:09:00.553Z,60.65
2022-11-18T00:11:46.786Z,60.84
2022-11-18T00:14:18.844Z,61.26
2022-11-18T00:16:47.045Z,60.94
2022-11-18T00:19:14.985Z,61.04
2022-11-18T00:21:42.477Z,61.32
2022-11-18T00:24:10.830Z,61.59
2022-11-18T00:26:37.878Z,61.11
2022-11-18T00:29:05.044Z,61.81
2022-11-18T00:31:33.288Z,61.25
2022-11-18T00:34:00.181Z,61.16
2022-11-18T00:36:28.479Z,60.94
2022-11-18T00:38:55.545Z,60.92
2022-11-18T00:41:22.634Z,60.76
2022-11-18T00:43:49.865Z,61.16
2022-11-18T00:46:16.826Z,61.12
2022-11-18T00:48:45.123Z,60.61
2022-11-18T00:51:16.116Z,60.53
2022-11-18T00:53:43.614Z,60.64
2022-11-18T00:56:11.291Z,60.93
2022-11-18T00:58:38.586Z,60.16
2022-11-18T01:01:05.974Z,60.10
2022-11-18T01:03:33.347Z,60.87
2022-11-18T01:06:01.623Z,60.89
2022-11-18T01:08:28.597Z,61.04
2022-11-18T01:11:15.510Z,60.84
2022-11-18T01:13:42.427Z,60.75
2022-11-18T01:16:09.390Z,60.42
2022-11-18T01:18:36.388Z,61.03
2022-11-18T01:21:06.320Z,60.69
2022-11-18T01:23:33.462Z,61.09
2022-11-18T01:26:05.189Z,60.91
2022-11-18T01:28:32.732Z,60.49
2022-11-18T01:31:05.015Z,61.04
2022-11-18T01:33:32.098Z,60.95
2022-11-18T01:35:59.080Z,60.43
2022-11-18T01:38:30.147Z,60.97
2022-11-18T01:40:57.222Z,60.52
2022-11-18T01:43:24.585Z,60.78
2022-11-18T01:45:53.912Z,60.37
2022-11-18T01:48:26.533Z,60.58
2022-11-18T01:50:59.117Z,60.39
2022-11-18T01:53:33.691Z,60.75
2022-11-18T01:56:06.315Z,60.47
2022-11-18T01:58:38.986Z,60.43
2022-11-18T02:01:08.269Z,61.00
2022-11-18T02:03:35.988Z,60.08
2022-11-18T02:06:05.368Z,60.51
2022-11-18T02:08:37.445Z,60.52
2022-11-18T02:11:04.945Z,60.06
2022-11-18T02:13:34.687Z,60.42
2022-11-18T02:16:11.395Z,60.59
2022-11-18T02:18:55.270Z,60.20
2022-11-18T02:21:40.983Z,60.04
2022-11-18T02:24:36.710Z,60.64
2022-11-18T02:27:55.351Z,60.33
2022-11-18T02:30:24.135Z,61.09
2022-11-18T02:32:58.218Z,60.93
2022-11-18T02:35:31.899Z,60.50
2022-11-18T02:38:05.339Z,60.16
2022-11-18T02:40:38.618Z,60.74
2022-11-18T02:43:13.479Z,59.91
2022-11-18T02:45:49.383Z,60.51
2022-11-18T02:48:20.062Z,60.35
2022-11-18T02:50:51.301Z,60.42
2022-11-18T02:53:24.059Z,60.25
2022-11-18T02:55:53.709Z,59.81
2022-11-18T02:58:23.189Z,59.81
2022-11-18T03:00:56.394Z,59.80
2022-11-18T03:03:29.454Z,59.93
2022-11-18T03:06:10.209Z,59.62
2022-11-18T03:08:46.071Z,59.63
2022-11-18T03:11:18.153Z,59.56
2022-11-18T03:14:07.203Z,59.31
2022-11-18T03:16:43.970Z,59.07
2022-11-18T03:19:26.327Z,59.15
2022-11-18T03:22:08.235Z,59.20
2022-11-18T03:24:41.300Z,58.80
2022-11-18T03:27:17.487Z,59.09
2022-11-18T03:29:52.267Z,59.00
2022-11-18T03:32:26.785Z,59.53
2022-11-18T03:35:01.994Z,58.60
2022-11-18T03:37:32.771Z,58.98
2022-11-18T03:40:08.954Z,58.54
2022-11-18T03:42:41.391Z,58.86
2022-11-18T03:45:16.307Z,58.63
2022-11-18T03:47:53.994Z,59.11
2022-11-18T03:50:26.609Z,59.50
2022-11-18T03:52:55.162Z,59.22
2022-11-18T03:55:27.852Z,59.06
2022-11-18T03:58:03.469Z,59.04
2022-11-18T04:00:39.567Z,59.61
2022-11-18T04:03:08.439Z,59.60
2022-11-18T04:05:40.264Z,58.57
2022-11-18T04:08:14.795Z,58.49
2022-11-18T04:10:50.770Z,58.81
2022-11-18T04:13:24.415Z,58.69
2022-11-18T04:15:54.227Z,58.66
2022-11-18T04:18:22.665Z,58.50
2022-11-18T04:20:49.650Z,59.03
2022-11-18T04:23:16.713Z,59.77
2022-11-18T04:25:43.799Z,59.71
2022-11-18T04:28:10.770Z,59.45
2022-11-18T04:30:37.826Z,59.50
2022-11-18T04:33:05.148Z,59.01
2022-11-18T04:35:33.445Z,59.26
2022-11-18T04:38:00.457Z,59.55
2022-11-18T04:40:27.446Z,59.42
2022-11-18T04:42:54.401Z,59.03
2022-11-18T04:45:21.339Z,59.11
2022-11-18T04:47:48.262Z,59.22
2022-11-18T04:50:15.398Z,59.63
2022-11-18T04:52:43.770Z,59.43
2022-11-18T04:55:10.746Z,59.68
2022-11-18T04:57:37.739Z,59.86
2022-11-18T05:00:06.756Z,59.23
2022-11-18T05:02:33.730Z,59.48
2022-11-18T05:05:00.658Z,59.82
2022-11-18T05:07:27.632Z,59.71
2022-11-18T05:09:55.952Z,59.82
2022-11-18T05:12:41.518Z,59.63
2022-11-18T05:15:09.168Z,59.89
2022-11-18T05:17:36.193Z,60.20
2022-11-18T05:20:03.716Z,60.45
2022-11-18T05:22:30.820Z,59.79
2022-11-18T05:24:59.144Z,59.90
2022-11-18T05:27:26.198Z,59.74
2022-11-18T05:29:53.187Z,59.62
2022-11-18T05:32:20.122Z,58.73
2022-11-18T05:34:47.130Z,59.01
2022-11-18T05:37:14.246Z,59.79
2022-11-18T05:39:41.285Z,59.38
2022-11-18T05:42:30.503Z,59.73
2022-11-18T05:44:58.787Z,59.54
2022-11-18T05:47:26.987Z,59.34
2022-11-18T05:49:53.953Z,59.29
2022-11-18T05:52:20.930Z,59.78
2022-11-18T05:54:50.696Z,59.18
2022-11-18T05:57:19.031Z,59.02
2022-11-18T05:59:45.976Z,58.69
2022-11-18T06:02:19.640Z,58.35
2022-11-18T06:04:52.830Z,59.24
2022-11-18T06:07:25.161Z,58.23
2022-11-18T06:10:03.699Z,58.81
2022-11-18T06:12:39.658Z,58.63
2022-11-18T06:15:14.799Z,58.17
2022-11-18T06:17:47.636Z,58.44
2022-11-18T06:20:17.447Z,58.74
2022-11-18T06:22:46.653Z,58.42
2022-11-18T06:25:14.948Z,58.35
2022-11-18T06:27:44.112Z,58.50
2022-11-18T06:30:12.809Z,58.43
2022-11-18T06:32:40.026Z,58.28
2022-11-18T06:35:08.508Z,57.99
2022-11-18T06:37:35.488Z,57.71
2022-11-18T06:40:03.611Z,57.66
2022-11-18T06:42:49.492Z,58.29
2022-11-18T06:45:20.443Z,57.85
2022-11-18T06:47:47.522Z,58.07
2022-11-18T06:50:14.694Z,57.61
2022-11-18T06:52:41.657Z,57.71
2022-11-18T06:55:09.469Z,57.70
2022-11-18T06:57:36.463Z,58.02
2022-11-18T07:00:05.064Z,57.56
2022-11-18T07:02:36.901Z,57.23
2022-11-18T07:05:06.276Z,57.82
2022-11-18T07:07:41.494Z,57.85
2022-11-18T07:10:09.951Z,57.93
2022-11-18T07:12:36.917Z,58.16
2022-11-18T07:15:04.611Z,56.98
2022-11-18T07:17:33.032Z,57.65
2022-11-18T07:19:59.973Z,57.31
2022-11-18T07:22:26.988Z,57.45
2022-11-18T07:24:53.921Z,57.23
2022-11-18T07:27:22.055Z,57.36
2022-11-18T07:29:49.000Z,57.14
2022-11-18T07:32:15.963Z,57.30
2022-11-18T07:34:45.739Z,57.10
2022-11-18T07:37:12.709Z,57.04
2022-11-18T07:39:39.695Z,56.98
2022-11-18T07:42:06.636Z,57.06
2022-11-18T07:44:33.735Z,57.33
2022-11-18T07:47:00.963Z,57.28
2022-11-18T07:49:28.403Z,57.04
2022-11-18T07:51:57.180Z,57.50
2022-11-18T07:54:24.202Z,57.04
2022-11-18T07:56:51.164Z,56.95
2022-11-18T07:59:18.406Z,56.98
2022-11-18T08:01:45.570Z,57.45
2022-11-18T08:04:13.249Z,57.49
2022-11-18T08:06:40.691Z,57.02
2022-11-18T08:09:11.317Z,56.59
2022-11-18T08:11:38.439Z,57.09
2022-11-18T08:14:05.598Z,57.10
2022-11-18T08:16:32.616Z,56.75
2022-11-18T08:19:00.727Z,56.95
2022-11-18T08:21:28.360Z,56.68
2022-11-18T08:23:57.645Z,56.93
2022-11-18T08:26:27.101Z,56.56
2022-11-18T08:28:55.723Z,57.09
2022-11-18T08:31:26.187Z,56.99
2022-11-18T08:33:56.368Z,56.76
2022-11-18T08:36:27.382Z,56.73
2022-11-18T08:38:56.511Z,56.85
2022-11-18T08:41:32.718Z,56.13
2022-11-18T08:44:00.230Z,56.96
2022-11-18T08:46:28.463Z,56.98
2022-11-18T08:48:55.461Z,56.83
2022-11-18T08:51:23.011Z,57.06
2022-11-18T08:53:50.150Z,56.84
2022-11-18T08:56:24.236Z,56.94
2022-11-18T08:58:53.570Z,56.89
2022-11-18T09:01:20.819Z,57.29
2022-11-18T09:03:51.869Z,57.13
2022-11-18T09:06:22.780Z,57.54
2022-11-18T09:08:49.879Z,57.35
2022-11-18T09:11:19.633Z,57.50
2022-11-18T09:16:41.499Z,57.34
2022-11-18T09:22:17.605Z,56.71
2022-11-18T09:24:45.417Z,56.86
2022-11-18T09:27:17.000Z,56.88
2022-11-18T09:29:46.065Z,56.39
2022-11-18T09:32:13.337Z,56.79
2022-11-18T09:34:40.335Z,56.46
2022-11-18T09:37:07.711Z,56.58
2022-11-18T09:39:36.374Z,55.98
2022-11-18T09:42:24.397Z,56.56
2022-11-18T09:45:13.489Z,56.15
2022-11-18T09:47:42.935Z,56.09
2022-11-18T09:50:47.825Z,56.25
2022-11-18T09:53:16.067Z,56.11
2022-11-18T09:55:43.474Z,56.09
2022-11-18T09:58:21.193Z,55.46
2022-11-18T10:00:49.896Z,56.12
2022-11-18T10:03:29.425Z,55.69
2022-11-18T10:06:03.610Z,56.00
2022-11-18T10:08:39.599Z,56.31
2022-11-18T10:11:15.100Z,55.97
2022-11-18T10:14:01.155Z,55.60
2022-11-18T10:16:47.122Z,55.87
2022-11-18T10:19:29.141Z,56.06
2022-11-18T10:22:19.656Z,55.50
2022-11-18T10:24:53.503Z,55.64
2022-11-18T10:27:21.761Z,55.62
2022-11-18T10:29:55.516Z,55.51
2022-11-18T10:32:24.249Z,54.93
2022-11-18T10:34:55.390Z,55.25
2022-11-18T10:37:45.437Z,54.61
2022-11-18T10:40:26.309Z,54.87
2022-11-18T10:42:53.678Z,54.92
2022-11-18T10:45:27.999Z,55.34
2022-11-18T10:48:16.319Z,55.50
2022-11-18T10:50:50.456Z,54.78
2022-11-18T10:53:32.831Z,54.30
2022-11-18T10:56:03.149Z,54.22
2022-11-18T10:58:34.298Z,54.52
2022-11-18T11:01:19.698Z,54.24
2022-11-18T11:04:02.288Z,55.32
2022-11-18T11:06:35.280Z,55.08
2022-11-18T11:09:07.459Z,54.65
2022-11-18T11:11:39.792Z,54.15
2022-11-18T11:14:23.390Z,54.19
2022-11-18T11:17:12.370Z,54.00
2022-11-18T11:19:56.807Z,54.09
2022-11-18T11:22:23.997Z,54.54
2022-11-18T11:24:51.110Z,54.56
2022-11-18T11:30:46.703Z,53.90
2022-11-18T11:33:33.098Z,53.54
2022-11-18T11:36:32.776Z,53.42
2022-11-18T11:39:26.571Z,53.93
2022-11-18T11:42:05.960Z,53.78
2022-11-18T11:44:51.109Z,53.56
2022-11-18T11:47:49.257Z,53.57
2022-11-18T11:50:27.654Z,54.02
2022-11-18T11:53:17.235Z,54.42
2022-11-18T11:56:02.812Z,53.59
2022-11-18T11:59:06.206Z,54.28
2022-11-18T12:01:45.189Z,53.81
2022-11-18T12:04:34.432Z,52.81
2022-11-18T12:07:05.914Z,53.03
2022-11-18T12:09:52.522Z,52.76
2022-11-18T12:12:34.287Z,52.61
2022-11-18T12:15:19.218Z,53.14
2022-11-18T12:18:00.033Z,53.29
2022-11-18T12:20:43.556Z,52.83
2022-11-18T12:23:17.884Z,53.27
2022-11-18T12:25:59.588Z,53.15
2022-11-18T12:28:35.579Z,53.33
2022-11-18T12:31:33.964Z,52.33
2022-11-18T12:34:32.772Z,52.75
2022-11-18T12:37:44.487Z,53.27
2022-11-18T12:40:44.810Z,53.34
2022-11-18T12:44:06.637Z,53.18
2022-11-18T12:46:50.236Z,53.65
2022-11-18T12:50:09.971Z,52.63
2022-11-18T12:52:53.015Z,53.25
2022-11-18T12:55:33.449Z,53.28
2022-11-18T12:58:01.679Z,53.46
2022-11-18T13:00:52.125Z,53.88
2022-11-18T13:03:29.004Z,53.44
2022-11-18T13:06:14.894Z,53.21
2022-11-18T13:08:42.685Z,53.24
2022-11-18T13:11:37.097Z,53.23
2022-11-18T13:14:25.820Z,53.24
2022-11-18T13:17:13.285Z,52.54
2022-11-18T13:19:40.621Z,52.48
2022-11-18T13:22:37.125Z,52.61
2022-11-18T13:25:04.754Z,52.52
2022-11-18T13:27:47.580Z,52.99
2022-11-18T13:30:17.278Z,53.00
2022-11-18T13:32:48.346Z,52.82
2022-11-18T13:35:19.936Z,52.15
2022-11-18T13:37:53.270Z,52.08
2022-11-18T13:40:25.160Z,52.31
2022-11-18T13:42:53.236Z,52.54
2022-11-18T13:45:26.107Z,52.05
2022-11-18T13:48:01.416Z,52.25
2022-11-18T13:50:35.495Z,52.37
2022-11-18T13:53:23.136Z,52.12
2022-11-18T13:55:55.280Z,51.34
2022-11-18T13:59:02.500Z,51.23
2022-11-18T14:01:30.102Z,51.24
2022-11-18T14:04:03.820Z,51.79
2022-11-18T14:06:34.680Z,52.30
2022-11-18T14:09:21.229Z,51.92
2022-11-18T14:12:01.781Z,52.16
2022-11-18T14:14:32.725Z,51.68
2022-11-18T14:17:17.661Z,51.75
2022-11-18T14:19:47.253Z,52.12
2022-11-18T14:22:19.587Z,51.85
2022-11-18T14:24:56.892Z,51.44
2022-11-18T14:27:40.064Z,52.19
2022-11-18T14:30:32.734Z,51.71
2022-11-18T14:33:12.621Z,51.87
2022-11-18T14:35:44.309Z,52.01
2022-11-18T14:41:10.618Z,52.17
2022-11-18T14:43:38.288Z,51.87
2022-11-18T14:46:14.465Z,52.03
2022-11-18T14:48:42.555Z,51.91
2022-11-18T14:51:15.293Z,51.76
2022-11-18T14:53:43.768Z,51.21
2022-11-18T14:56:18.169Z,51.49
2022-11-18T14:58:45.166Z,51.48
2022-11-18T15:01:13.264Z,51.10
2022-11-18T15:03:40.500Z,51.27
2022-11-18T15:06:17.453Z,51.20
2022-11-18T15:08:47.679Z,51.90
2022-11-18T15:11:14.921Z,52.19
2022-11-18T15:13:42.681Z,51.73
2022-11-18T15:16:16.231Z,51.08
2022-11-18T15:18:44.927Z,50.75
2022-11-18T15:21:12.034Z,50.74
2022-11-18T15:23:40.555Z,50.81
2022-11-18T15:26:19.370Z,50.28
2022-11-18T15:28:50.020Z,50.68
2022-11-18T15:31:18.544Z,50.38
2022-11-18T15:33:46.457Z,50.72
2022-11-18T15:36:16.179Z,50.34
2022-11-18T15:38:45.384Z,50.18
2022-11-18T15:41:17.489Z,50.87
2022-11-18T15:43:44.663Z,50.61
2022-11-18T15:46:11.684Z,50.74
2022-11-18T15:48:38.661Z,51.10
2022-11-18T15:51:11.465Z,51.11
2022-11-18T15:53:39.716Z,50.86
2022-11-18T15:56:28.079Z,50.54
2022-11-18T15:58:57.116Z,50.76
2022-11-18T16:01:26.035Z,50.92
2022-11-18T16:03:54.226Z,50.24
2022-11-18T16:06:21.919Z,50.13
2022-11-18T16:08:50.376Z,49.83
2022-11-18T16:11:40.535Z,49.95
2022-11-18T16:14:09.749Z,49.79
2022-11-18T16:16:39.055Z,49.19
2022-11-18T16:19:08.996Z,49.64
2022-11-18T16:21:39.872Z,49.47
2022-11-18T16:24:12.416Z,49.66
2022-11-18T16:26:41.296Z,48.42
2022-11-18T16:29:15.083Z,48.72
2022-11-18T16:31:44.820Z,47.76
2022-11-18T16:34:14.164Z,47.23
2022-11-18T16:36:44.236Z,46.78
2022-11-18T16:39:24.017Z,47.12
2022-11-18T16:41:53.974Z,46.19
2022-11-18T16:44:35.844Z,46.04
2022-11-18T16:47:07.695Z,45.64
2022-11-18T16:49:37.716Z,45.75
2022-11-18T16:52:08.045Z,45.31
2022-11-18T16:54:38.259Z,45.50
2022-11-18T16:57:09.666Z,46.00
2022-11-18T16:59:36.789Z,45.48
2022-11-18T17:02:04.153Z,45.44
2022-11-18T17:04:31.554Z,45.23
2022-11-18T17:07:02.156Z,45.12
2022-11-18T17:09:30.092Z,44.86
2022-11-18T17:12:04.485Z,45.38
2022-11-18T17:14:58.354Z,45.66
2022-11-18T17:17:25.406Z,45.71
2022-11-18T17:19:52.455Z,44.91
2022-11-18T17:22:26.973Z,44.76
2022-11-18T17:24:53.986Z,44.99
2022-11-18T17:27:20.953Z,44.52
2022-11-18T17:29:50.666Z,44.86
2022-11-18T17:32:18.961Z,45.26
2022-11-18T17:34:46.984Z,45.26
2022-11-18T17:37:14.022Z,44.65
2022-11-18T17:39:40.970Z,45.23
2022-11-18T17:42:13.919Z,44.65
2022-11-18T17:44:40.941Z,44.28
2022-11-18T17:47:07.940Z,44.50
2022-11-18T17:49:36.277Z,44.60
2022-11-18T17:52:03.291Z,44.44
2022-11-18T17:54:30.247Z,44.91
2022-11-18T17:56:57.353Z,43.94
2022-11-18T17:59:24.505Z,43.41
2022-11-18T18:01:57.568Z,44.20
2022-11-18T18:04:26.321Z,43.60
2022-11-18T18:06:55.180Z,43.73
2022-11-18T18:09:30.515Z,43.72
2022-11-18T18:11:59.462Z,43.84
2022-11-18T18:14:26.815Z,43.63
2022-11-18T18:16:54.049Z,43.40
2022-11-18T18:19:23.149Z,43.06
2022-11-18T18:21:50.731Z,42.99
2022-11-18T18:24:20.825Z,43.23
2022-11-18T18:26:48.844Z,42.98
2022-11-18T18:29:16.081Z,43.13
2022-11-18T18:31:48.899Z,43.18
2022-11-18T18:34:19.828Z,43.11
2022-11-18T18:36:46.824Z,43.23
2022-11-18T18:39:13.830Z,42.92
2022-11-18T18:41:42.180Z,43.23
2022-11-18T18:44:16.888Z,43.14
2022-11-18T18:46:45.472Z,43.56
2022-11-18T18:49:15.741Z,43.30
2022-11-18T18:51:44.910Z,43.75
2022-11-18T18:54:15.493Z,43.28
2022-11-18T18:56:44.399Z,43.24
2022-11-18T18:59:11.883Z,43.47
2022-11-18T19:01:39.720Z,43.55
2022-11-18T19:04:11.173Z,43.59
2022-11-18T19:09:26.922Z,43.40
2022-11-18T19:12:14.333Z,43.49
2022-11-18T19:14:41.790Z,43.94
2022-11-18T19:17:11.707Z,43.63
2022-11-18T19:20:00.291Z,43.48
2022-11-18T19:22:30.551Z,43.54
2022-11-18T19:24:58.449Z,43.87
2022-11-18T19:27:27.956Z,44.05
2022-11-18T19:29:55.091Z,44.07
2022-11-18T19:32:22.245Z,44.04
2022-11-18T19:34:49.290Z,44.00
2022-11-18T19:37:16.303Z,44.13
2022-11-18T19:39:43.328Z,44.20
2022-11-18T19:42:10.911Z,44.12
2022-11-18T19:44:39.603Z,44.66
2022-11-18T19:47:06.698Z,44.22
2022-11-18T19:49:33.706Z,44.63
2022-11-18T19:52:00.621Z,43.94
2022-11-18T19:54:27.625Z,44.25
2022-11-18T19:56:54.835Z,44.18
2022-11-18T19:59:21.943Z,44.82
2022-11-18T20:01:50.386Z,44.64
2022-11-18T20:04:17.487Z,44.96
2022-11-18T20:06:45.520Z,45.01
2022-11-18T20:09:13.258Z,45.03
2022-11-18T20:11:40.460Z,45.54
2022-11-18T20:14:08.253Z,44.85
2022-11-18T20:16:37.451Z,45.26
2022-11-18T20:19:10.688Z,44.65
2022-11-18T20:21:38.920Z,45.25
2022-11-18T20:24:08.014Z,45.52
2022-11-18T20:26:38.464Z,45.15
2022-11-18T20:29:06.530Z,45.36
2022-11-18T20:31:34.020Z,45.25
2022-11-18T20:34:02.293Z,45.49
2022-11-18T20:36:32.965Z,45.99
2022-11-18T20:39:02.647Z,46.19
2022-11-18T20:41:31.066Z,46.19
2022-11-18T20:43:58.653Z,45.74
2022-11-18T20:46:26.212Z,46.38
2022-11-18T20:48:53.731Z,46.11
2022-11-18T20:51:23.492Z,46.52
2022-11-18T20:53:54.685Z,45.91
2022-11-18T20:56:24.250Z,46.17
2022-11-18T20:58:51.437Z,46.36
2022-11-18T21:01:21.624Z,46.44
2022-11-18T21:03:54.917Z,46.22
2022-11-18T21:06:28.624Z,46.05
2022-11-18T21:08:59.593Z,45.88
2022-11-18T21:11:27.744Z,46.07
2022-11-18T21:14:17.126Z,46.40
2022-11-18T21:16:47.898Z,45.76
2022-11-18T21:19:15.365Z,45.53
2022-11-18T21:21:45.059Z,46.06
2022-11-18T21:24:15.393Z,46.57
2022-11-18T21:26:43.304Z,46.04
2022-11-18T21:29:13.157Z,46.66
2022-11-18T21:31:41.323Z,46.26
2022-11-18T21:34:10.027Z,46.78
2022-11-18T21:36:42.996Z,46.62
2022-11-18T21:39:14.820Z,46.05
2022-11-18T21:41:42.349Z,45.99
2022-11-18T21:44:11.805Z,45.98
2022-11-18T21:46:41.284Z,46.14
2022-11-18T21:49:08.890Z,46.11
2022-11-18T21:51:36.441Z,46.07
2022-11-18T21:54:04.211Z,46.17
2022-11-18T21:56:32.891Z,45.64
2022-11-18T21:59:02.185Z,46.17
2022-11-18T22:01:32.279Z,45.62
2022-11-18T22:04:02.218Z,45.89
2022-11-18T22:06:31.466Z,45.99
2022-11-18T22:08:58.877Z,46.04
2022-11-18T22:11:25.919Z,46.51
2022-11-18T22:13:54.249Z,45.93
2022-11-18T22:16:24.153Z,46.39
2022-11-18T22:18:59.196Z,46.58
2022-11-18T22:21:29.815Z,46.34
2022-11-18T22:23:59.342Z,46.60
2022-11-18T22:26:26.678Z,46.32
2022-11-18T22:28:57.481Z,46.22
2022-11-18T22:31:27.824Z,45.96
2022-11-18T22:33:56.176Z,46.32
2022-11-18T22:36:26.270Z,46.40
2022-11-18T22:38:54.024Z,46.35
2022-11-18T22:41:42.345Z,46.02
2022-11-18T22:44:13.762Z,46.63
2022-11-18T22:46:42.870Z,46.73
2022-11-18T22:49:11.997Z,46.53
2022-11-18T22:51:40.102Z,46.99
2022-11-18T22:56:55.687Z,47.00
2022-11-18T22:59:24.806Z,46.25
2022-11-18T23:01:53.019Z,46.40
2022-11-18T23:04:20.050Z,46.67
2022-11-18T23:06:48.288Z,46.76
2022-11-18T23:09:15.752Z,46.17
2022-11-18T23:12:01.435Z,46.52
2022-11-18T23:14:29.763Z,46.61
2022-11-18T23:16:56.821Z,46.76
2022-11-18T23:19:23.783Z,47.18
2022-11-18T23:21:50.817Z,46.56
2022-11-18T23:24:19.389Z,46.81
2022-11-18T23:26:47.003Z,47.08
2022-11-18T23:29:15.743Z,46.39
2022-11-18T23:31:45.178Z,47.09
2022-11-18T23:34:15.537Z,47.06
2022-11-18T23:36:43.544Z,46.57
2022-11-18T23:39:11.346Z,46.57
2022-11-18T23:41:38.931Z,46.84
2022-11-18T23:44:06.678Z,46.46
2022-11-18T23:46:34.429Z,46.44
2022-11-18T23:49:02.751Z,46.72
2022-11-18T23:51:29.762Z,47.10
2022-11-18T23:53:57.727Z,46.65
2022-11-18T23:56:26.921Z,47.26
2022-11-18T23:58:56.507Z,46.79
